.
WxDataArchive / Data Records for 2012-08-20
2012-08-19 August 2012 2012-08-21

Data Records for Monday, 20 August 2012

Time	Temp	Chill	HIndex	Humid	Dewpt	 Wind 	HiWind	WindDir	Rain 	Barom 
-----	----	-----	------	-----	-----	------	------	-------	-----	----- 
00:00	59.8	59.8	59.8	74	51.5	0	0	---	0.00	29.912 
00:05	59.8	59.8	59.8	73	51.1	0	0	---	0.00	29.912 
00:10	59.8	59.8	59.8	73	51.1	0	0	---	0.00	29.912 
00:15	59.9	59.9	59.9	73	51.2	0	0	---	0.00	29.912 
00:20	59.9	59.9	59.9	73	51.2	0	0	---	0.00	29.912 
00:25	60.1	60.1	60.1	72	51.0	0	0	---	0.00	29.912 
00:30	60.1	60.1	60.1	72	51.0	0	0	---	0.00	29.912 
00:35	59.9	59.9	59.9	72	50.8	0	0	---	0.00	29.912 
00:40	59.8	59.8	59.8	72	50.8	0	0	---	0.00	29.912 
00:45	59.6	59.6	59.6	73	50.9	0	0	---	0.00	29.913 
00:50	59.5	59.5	59.5	73	50.8	0	0	---	0.00	29.913 
00:55	59.3	59.3	59.3	73	50.6	0	0	---	0.00	29.913 
01:00	59.0	59.0	59.0	73	50.4	0	0	---	0.00	29.919 
01:05	58.7	58.7	58.7	74	50.4	0	0	---	0.00	29.919 
01:10	58.6	58.6	58.6	75	50.7	0	0	---	0.00	29.919 
01:15	58.3	58.3	58.3	76	50.8	0	0	---	0.00	29.924 
01:20	58.0	58.0	58.0	77	50.8	0	0	---	0.00	29.924 
01:25	57.6	57.6	57.6	77	50.4	0	0	---	0.00	29.924 
01:30	57.5	57.5	57.5	78	50.7	0	0	---	0.00	29.928 
01:35	57.3	57.3	57.3	79	50.8	0	0	---	0.00	29.928 
01:40	57.2	57.2	57.2	79	50.7	0	0	---	0.00	29.928 
01:45	57.0	57.0	57.0	80	50.9	0	0	---	0.00	29.926 
01:50	56.7	56.7	56.7	80	50.6	0	0	---	0.00	29.926 
01:55	56.6	56.6	56.6	81	50.8	0	0	---	0.00	29.926 
02:00	56.5	56.5	56.5	81	50.7	0	0	---	0.00	29.923 
02:05	56.3	56.3	56.3	82	50.9	0	0	---	0.00	29.923 
02:10	56.2	56.2	56.2	82	50.8	0	0	---	0.00	29.923 
02:15	56.0	56.0	56.0	83	50.9	0	0	---	0.00	29.922 
02:20	55.9	55.9	55.9	84	51.1	0	0	---	0.00	29.922 
02:25	55.7	55.7	55.7	84	50.9	0	0	---	0.00	29.922 
02:30	55.6	55.6	55.6	84	50.8	0	0	---	0.00	29.920 
02:35	55.3	55.3	55.3	85	50.9	0	0	---	0.00	29.920 
02:40	55.3	55.3	55.3	85	50.9	0	0	---	0.00	29.920 
02:45	55.1	55.1	55.1	85	50.7	0	0	---	0.00	29.918 
02:50	55.0	55.0	55.0	85	50.6	0	0	---	0.00	29.918 
02:55	54.8	54.8	54.8	86	50.7	0	0	---	0.00	29.918 
03:00	54.7	54.7	54.7	86	50.6	0	0	---	0.00	29.915 
03:05	54.7	54.7	54.7	86	50.6	0	0	---	0.00	29.915 
03:10	54.5	54.5	54.5	87	50.7	0	0	---	0.00	29.915 
03:15	54.5	54.5	54.5	87	50.7	0	0	---	0.00	29.913 
03:20	54.4	54.4	54.4	87	50.6	0	0	---	0.00	29.913 
03:25	54.4	54.4	54.4	87	50.6	0	0	---	0.00	29.913 
03:30	54.2	54.2	54.2	87	50.4	0	0	---	0.00	29.910 
03:35	54.2	54.2	54.2	88	50.7	0	0	---	0.00	29.910 
03:40	54.1	54.1	54.1	88	50.6	0	0	---	0.00	29.910 
03:45	54.1	54.1	54.1	88	50.6	0	0	---	0.00	29.912 
03:50	53.9	53.9	53.9	88	50.4	0	0	---	0.00	29.912 
03:55	53.9	53.9	53.9	88	50.4	0	0	---	0.00	29.912 
04:00	53.8	53.8	53.8	88	50.3	0	0	---	0.00	29.910 
04:05	53.8	53.8	53.8	89	50.6	0	0	---	0.00	29.910 
04:10	53.6	53.6	53.6	89	50.4	0	0	---	0.00	29.910 
04:15	53.6	53.6	53.6	89	50.4	0	0	---	0.00	29.914 
04:20	53.5	53.5	53.5	89	50.3	0	0	---	0.00	29.914 
04:25	53.3	53.3	53.3	89	50.1	0	0	---	0.00	29.914 
04:30	53.3	53.3	53.3	89	50.1	0	0	---	0.00	29.916 
04:35	53.3	53.3	53.3	90	50.4	0	0	---	0.00	29.916 
04:40	53.3	53.3	53.3	90	50.4	0	0	---	0.00	29.916 
04:45	53.3	53.3	53.3	90	50.4	0	0	---	0.00	29.918 
04:50	53.3	53.3	53.3	90	50.4	0	0	---	0.00	29.918 
04:55	53.3	53.3	53.3	90	50.4	0	0	---	0.00	29.918 
05:00	53.5	53.5	53.5	91	50.9	0	0	---	0.00	29.916 
05:05	53.5	53.5	53.5	91	50.9	0	0	---	0.00	29.916 
05:10	53.5	53.5	53.5	90	50.6	0	0	---	0.00	29.916 
05:15	53.3	53.3	53.3	90	50.4	0	0	---	0.00	29.918 
05:20	53.2	53.2	53.2	90	50.3	0	0	---	0.00	29.918 
05:25	53.2	53.2	53.2	90	50.3	0	0	---	0.00	29.918 
05:30	53.1	53.1	53.1	91	50.5	0	0	---	0.00	29.918 
05:35	53.1	53.1	53.1	91	50.5	0	0	---	0.00	29.918 
05:40	53.1	53.1	53.1	91	50.5	0	0	---	0.00	29.918 
05:45	52.9	52.9	52.9	91	50.3	0	0	---	0.00	29.919 
05:50	52.8	52.8	52.8	91	50.2	0	0	---	0.00	29.919 
05:55	52.8	52.8	52.8	91	50.2	0	0	---	0.00	29.919 
06:00	52.9	52.9	52.9	92	50.6	0	0	---	0.00	29.924 
06:05	52.9	52.9	52.9	92	50.6	0	0	---	0.00	29.924 
06:10	52.9	52.9	52.9	92	50.6	0	0	---	0.00	29.924 
06:15	52.8	52.8	52.8	92	50.5	0	0	---	0.00	29.928 
06:20	52.8	52.8	52.8	92	50.5	0	0	---	0.00	29.928 
06:25	52.8	52.8	52.8	92	50.5	0	0	---	0.00	29.928 
06:30	53.1	53.1	53.1	92	50.8	0	0	---	0.00	29.931 
06:35	53.2	53.2	53.2	92	50.9	0	0	---	0.00	29.931 
06:40	53.3	53.3	53.3	92	51.0	0	0	---	0.00	29.931 
06:45	53.3	53.3	53.3	92	51.0	0	0	---	0.00	29.934 
06:50	53.2	53.2	53.2	92	50.9	0	0	---	0.00	29.934 
06:55	53.2	53.2	53.2	92	50.9	0	0	---	0.00	29.934 
07:00	53.2	53.2	53.2	92	50.9	0	0	---	0.00	29.939 
07:05	53.3	53.3	53.3	92	51.0	0	0	---	0.00	29.939 
07:10	53.3	53.3	53.3	92	51.0	0	0	---	0.00	29.939 
07:15	53.5	53.5	53.5	92	51.2	0	0	---	0.00	29.943 
07:20	53.5	53.5	53.5	92	51.2	0	0	---	0.00	29.943 
07:25	53.5	53.5	53.5	92	51.2	0	0	---	0.00	29.943 
07:30	53.5	53.5	53.5	92	51.2	0	0	---	0.00	29.945 
07:35	53.6	53.6	53.6	92	51.3	0	0	---	0.00	29.945 
07:40	53.8	53.8	53.8	92	51.5	0	0	---	0.00	29.945 
07:45	54.1	54.1	54.1	92	51.8	0	0	---	0.00	29.948 
07:50	54.5	54.5	54.5	93	52.5	0	0	---	0.00	29.948 
07:55	55.0	55.0	55.0	92	52.7	0	0	---	0.00	29.948 
08:00	55.4	55.4	55.4	92	53.1	0	0	---	0.00	29.950 
08:05	56.0	56.0	56.0	92	53.7	0	0	---	0.00	29.950 
08:10	56.6	56.6	56.6	91	54.0	0	0	---	0.00	29.950 
08:15	57.3	57.3	57.3	90	54.4	0	0	---	0.00	29.954 
08:20	58.0	58.0	58.0	89	54.8	0	0	---	0.00	29.954 
08:25	58.4	58.4	58.4	87	54.5	0	0	---	0.00	29.954 
08:30	59.2	59.2	59.2	86	55.0	0	0	---	0.00	29.953 
08:35	59.8	59.8	59.8	84	55.0	0	0	---	0.00	29.953 
08:40	60.4	60.4	60.4	82	54.9	0	0	---	0.00	29.953 
08:45	61.0	61.0	61.0	81	55.1	0	0	---	0.00	29.956 
08:50	61.6	61.6	61.6	79	55.0	0	0	---	0.00	29.956 
08:55	62.6	62.6	62.6	79	56.0	0	0	---	0.00	29.956 
09:00	63.2	63.2	63.2	76	55.5	0	0	---	0.00	29.953 
09:05	63.4	63.4	63.4	74	55.0	0	0	---	0.00	29.953 
09:10	63.9	63.9	63.9	75	55.8	0	0	---	0.00	29.953 
09:15	64.3	64.3	64.3	73	55.5	0	0	---	0.00	29.956 
09:20	65.0	65.0	65.0	72	55.7	0	0	---	0.00	29.956 
09:25	65.6	65.6	65.6	70	55.5	0	0	---	0.00	29.956 
09:30	66.1	66.1	66.1	67	54.8	0	0	---	0.00	29.954 
09:35	66.6	66.6	66.6	65	54.5	0	0	---	0.00	29.954 
09:40	67.1	67.1	67.1	64	54.5	0	0	---	0.00	29.954 
09:45	67.6	67.6	67.6	62	54.1	0	0	---	0.00	29.956 
09:50	67.8	67.8	67.8	61	53.9	0	0	---	0.00	29.956 
09:55	68.3	68.3	68.3	62	54.8	0	0	---	0.00	29.956 
10:00	68.6	68.6	68.6	61	54.6	0	0	---	0.00	29.958 
10:05	68.9	68.9	68.9	62	55.3	0	0	---	0.00	29.958 
10:10	68.9	68.9	68.9	60	54.4	0	1	90	0.00	29.958 
10:15	69.1	69.1	69.1	59	54.2	0	0	---	0.00	29.961 
10:20	69.3	69.3	69.3	59	54.3	0	0	---	0.00	29.961 
10:25	69.4	69.4	69.4	58	54.0	0	0	---	0.00	29.961 
10:30	69.6	69.6	69.6	57	53.7	0	0	---	0.00	29.963 
10:35	70.1	70.1	70.1	59	55.1	0	0	---	0.00	29.963 
10:40	70.6	70.6	70.6	55	53.6	0	0	---	0.00	29.963 
10:45	70.8	70.8	70.8	55	53.8	0	0	---	0.00	29.962 
10:50	71.1	71.1	71.1	54	53.6	0	0	---	0.00	29.962 
10:55	71.5	71.5	71.5	51	52.4	0	0	---	0.00	29.962 
11:00	71.8	71.8	71.8	53	53.7	0	0	---	0.00	29.960 
11:05	72.0	72.0	72.0	48	51.2	0	3	315	0.00	29.960 
11:10	72.0	72.0	72.0	47	50.7	1	2	315	0.00	29.960 
11:15	72.3	72.3	72.3	46	50.3	0	2	315	0.00	29.958 
11:20	72.8	72.8	72.8	49	52.5	0	2	315	0.00	29.958 
11:25	72.7	72.7	72.7	50	53.0	1	3	315	0.00	29.958 
11:30	72.8	72.8	72.8	45	50.2	0	1	315	0.00	29.961 
11:35	73.0	73.0	73.0	49	52.7	1	3	315	0.00	29.961 
11:40	73.2	73.2	73.2	53	55.0	1	5	292	0.00	29.961 
11:45	73.3	73.3	73.3	49	53.0	1	3	270	0.00	29.957 
11:50	73.3	73.3	73.3	49	53.0	1	2	292	0.00	29.957 
11:55	73.7	73.7	73.7	47	52.2	1	3	315	0.00	29.957 
12:00	73.9	73.9	73.9	46	51.8	1	2	315	0.00	29.953 
12:05	74.2	74.2	74.2	45	51.5	1	2	315	0.00	29.953 
12:10	74.4	74.4	74.4	45	51.7	0	2	315	0.00	29.953 
12:15	74.9	74.9	74.9	48	53.9	0	1	315	0.00	29.951 
12:20	75.3	75.3	77.7	46	53.1	0	1	315	0.00	29.951 
12:25	75.3	75.3	77.7	47	53.7	1	3	315	0.00	29.951 
12:30	75.3	75.3	77.7	49	54.8	0	1	315	0.00	29.947 
12:35	74.6	74.6	74.6	45	51.8	1	3	315	0.00	29.947 
12:40	74.2	74.2	74.2	48	53.2	1	2	315	0.00	29.947 
12:45	74.6	74.6	74.6	49	54.2	0	3	315	0.00	29.947 
12:50	74.7	74.7	74.7	46	52.5	1	4	270	0.00	29.947 
12:55	74.7	74.7	74.7	47	53.1	1	4	270	0.00	29.947 
13:00	75.3	75.3	77.7	47	53.7	0	1	270	0.00	29.945 
13:05	75.3	75.3	77.7	47	53.7	1	4	315	0.00	29.945 
13:10	75.3	75.3	77.7	44	51.9	1	4	270	0.00	29.945 
13:15	75.4	75.4	77.8	49	54.9	1	3	112	0.00	29.945 
13:20	75.6	75.6	77.8	43	51.5	1	4	112	0.00	29.945 
13:25	76.1	76.1	78.0	46	53.8	0	1	112	0.00	29.945 
13:30	76.3	76.3	78.1	46	54.0	0	2	112	0.00	29.938 
13:35	76.0	76.0	78.0	44	52.5	1	3	112	0.00	29.938 
13:40	75.3	75.3	77.7	43	51.2	1	3	112	0.00	29.938 
13:45	74.6	74.6	74.6	45	51.8	0	3	292	0.00	29.937 
13:50	74.7	74.7	74.7	46	52.5	0	3	22	0.00	29.937 
13:55	75.6	75.6	77.8	46	53.3	0	1	22	0.00	29.937 
14:00	75.8	75.8	77.8	43	51.7	0	2	22	0.00	29.933 
14:05	75.3	75.3	77.7	47	53.7	1	3	292	0.00	29.933 
14:10	75.6	75.6	77.8	46	53.3	0	2	338	0.00	29.933 
14:15	75.8	75.8	77.9	45	52.9	1	4	270	0.00	29.932 
14:20	75.4	75.4	77.7	44	52.0	1	2	292	0.00	29.932 
14:25	75.8	75.8	77.9	47	54.1	1	3	292	0.00	29.932 
14:30	76.5	76.5	78.3	47	54.7	1	2	292	0.00	29.930 
14:35	77.2	77.2	78.4	42	52.3	0	2	292	0.00	29.930 
14:40	77.6	77.6	78.5	40	51.3	1	4	292	0.00	29.930 
14:45	77.0	77.0	78.3	41	51.5	1	3	292	0.00	29.929 
14:50	77.6	77.6	78.6	41	52.0	1	3	292	0.00	29.929 
14:55	78.3	78.3	78.9	41	52.6	0	3	315	0.00	29.929 
15:00	77.9	77.9	78.6	39	50.9	1	3	315	0.00	29.924 
15:05	76.7	76.7	78.1	40	50.5	1	3	315	0.00	29.924 
15:10	75.6	75.6	77.7	42	50.9	2	4	292	0.00	29.924 
15:15	75.1	75.1	77.6	43	51.1	1	3	315	0.00	29.926 
15:20	74.9	74.9	74.9	44	51.5	0	2	315	0.00	29.926 
15:25	74.7	74.7	74.7	46	52.5	1	2	315	0.00	29.926 
15:30	74.6	74.6	74.6	44	51.2	0	2	315	0.00	29.920 
15:35	74.4	74.4	74.4	46	52.3	1	3	315	0.00	29.920 
15:40	74.4	74.4	74.4	46	52.3	1	3	315	0.00	29.920 
15:45	74.4	74.4	74.4	48	53.4	1	3	315	0.00	29.919 
15:50	73.9	73.9	73.9	50	54.1	1	4	292	0.00	29.919 
15:55	73.7	73.7	73.7	50	53.9	1	3	292	0.00	29.919 
16:00	73.5	73.5	73.5	50	53.7	0	2	270	0.00	29.920 
16:05	74.0	74.0	74.0	50	54.2	1	3	270	0.00	29.920 
16:10	75.3	75.3	77.7	50	55.4	1	4	270	0.00	29.920 
16:15	76.3	76.3	78.1	44	52.8	0	2	292	0.00	29.916 
16:20	77.2	77.2	78.3	40	51.0	1	3	0	0.00	29.916 
16:25	77.7	77.7	78.4	37	49.3	1	3	0	0.00	29.916 
16:30	77.7	77.7	78.3	36	48.6	1	3	338	0.00	29.916 
16:35	77.6	77.6	78.4	37	49.2	1	3	338	0.00	29.916 
16:40	76.3	76.3	78.0	43	52.1	2	6	292	0.00	29.916 
16:45	73.9	73.9	73.9	48	53.0	1	5	292	0.00	29.929 
16:50	72.3	72.3	72.3	49	52.1	2	4	292	0.00	29.929 
16:55	71.3	71.3	71.3	47	50.0	2	5	292	0.00	29.929 
17:00	70.4	70.4	70.4	50	50.9	2	6	292	0.00	29.934 
17:05	69.6	69.6	69.6	53	51.7	2	5	315	0.00	29.934 
17:10	68.9	68.9	68.9	55	52.1	1	4	315	0.00	29.934 
17:15	68.6	68.6	68.6	58	53.2	1	4	292	0.00	29.936 
17:20	68.3	68.3	68.3	60	53.9	1	5	292	0.00	29.936 
17:25	67.9	67.9	67.9	62	54.4	1	3	292	0.00	29.936 
17:30	67.6	67.6	67.6	64	55.0	1	4	292	0.00	29.940 
17:35	67.4	67.4	67.4	64	54.8	0	3	315	0.00	29.940 
17:40	67.6	67.6	67.6	66	55.8	0	2	315	0.00	29.940 
17:45	67.9	67.9	67.9	66	56.1	1	3	315	0.00	29.941 
17:50	68.4	68.4	68.4	65	56.2	0	2	292	0.00	29.941 
17:55	68.8	68.8	68.8	62	55.2	0	3	292	0.00	29.941 
18:00	69.4	69.4	69.4	62	55.8	1	3	270	0.00	29.938 
18:05	70.3	70.3	70.3	62	56.7	0	2	270	0.00	29.938 
18:10	70.6	70.6	70.6	58	55.1	0	1	270	0.00	29.938 
18:15	70.6	70.6	70.6	58	55.1	0	1	270	0.00	29.937 
18:20	70.3	70.3	70.3	58	54.8	0	1	270	0.00	29.937 
18:25	70.1	70.1	70.1	59	55.1	0	0	---	0.00	29.937 
18:30	69.9	69.9	69.9	60	55.4	0	1	270	0.00	29.940 
18:35	69.8	69.8	69.8	58	54.3	0	1	270	0.00	29.940 
18:40	69.8	69.8	69.8	59	54.8	0	0	---	0.00	29.940 
18:45	69.8	69.8	69.8	58	54.3	0	0	---	0.00	29.948 
18:50	69.8	69.8	69.8	58	54.3	0	1	270	0.00	29.948 
18:55	69.9	69.9	69.9	60	55.4	0	1	270	0.00	29.948 
19:00	69.9	69.9	69.9	58	54.4	0	1	270	0.00	29.946 
19:05	70.1	70.1	70.1	58	54.6	0	2	270	0.00	29.946 
19:10	70.3	70.3	70.3	56	53.8	0	1	270	0.00	29.946 
19:15	70.3	70.3	70.3	55	53.4	0	1	270	0.00	29.937 
19:20	70.4	70.4	70.4	56	53.9	0	0	---	0.00	29.937 
19:25	70.3	70.3	70.3	56	53.8	0	1	270	0.00	29.937 
19:30	70.3	70.3	70.3	57	54.3	0	1	270	0.00	29.938 
19:35	70.3	70.3	70.3	59	55.3	0	0	---	0.00	29.938 
19:40	69.9	69.9	69.9	60	55.4	0	0	---	0.00	29.938 
19:45	69.8	69.8	69.8	62	56.2	0	0	---	0.00	29.939 
19:50	69.6	69.6	69.6	65	57.3	0	0	---	0.00	29.939 
19:55	69.1	69.1	69.1	67	57.7	0	0	---	0.00	29.939 
20:00	68.8	68.8	68.8	68	57.8	0	0	---	0.00	29.946 
20:05	68.4	68.4	68.4	69	57.8	0	0	---	0.00	29.946 
20:10	68.1	68.1	68.1	69	57.5	0	0	---	0.00	29.946 
20:15	67.8	67.8	67.8	70	57.6	0	0	---	0.00	29.942 
20:20	67.6	67.6	67.6	71	57.9	0	0	---	0.00	29.942 
20:25	67.4	67.4	67.4	71	57.7	0	0	---	0.00	29.942 
20:30	67.1	67.1	67.1	72	57.8	0	0	---	0.00	29.944 
20:35	66.9	66.9	66.9	72	57.6	0	0	---	0.00	29.944 
20:40	66.8	66.8	66.8	73	57.9	0	0	---	0.00	29.944 
20:45	66.4	66.4	66.4	73	57.5	0	0	---	0.00	29.945 
20:50	66.3	66.3	66.3	74	57.8	0	0	---	0.00	29.945 
20:55	66.1	66.1	66.1	75	57.9	0	0	---	0.00	29.945 
21:00	66.0	66.0	66.0	75	57.8	0	0	---	0.00	29.945 
21:05	65.8	65.8	65.8	77	58.4	0	0	---	0.00	29.945 
21:10	65.6	65.6	65.6	77	58.2	0	0	---	0.00	29.945 
21:15	65.5	65.5	65.5	77	58.1	0	0	---	0.00	29.943 
21:20	65.2	65.2	65.2	78	58.2	0	0	---	0.00	29.943 
21:25	65.0	65.0	65.0	78	58.0	0	0	---	0.00	29.943 
21:30	65.0	65.0	65.0	79	58.3	0	0	---	0.00	29.946 
21:35	64.7	64.7	64.7	79	58.0	0	0	---	0.00	29.946 
21:40	64.5	64.5	64.5	79	57.8	0	0	---	0.00	29.946 
21:45	64.3	64.3	64.3	80	58.0	0	0	---	0.00	29.956 
21:50	64.2	64.2	64.2	80	57.9	0	0	---	0.00	29.956 
21:55	64.0	64.0	64.0	80	57.7	0	0	---	0.00	29.956 
22:00	63.9	63.9	63.9	80	57.6	0	0	---	0.00	29.960 
22:05	63.7	63.7	63.7	81	57.8	0	0	---	0.00	29.960 
22:10	63.4	63.4	63.4	81	57.5	0	0	---	0.00	29.960 
22:15	63.2	63.2	63.2	81	57.3	0	0	---	0.00	29.960 
22:20	62.9	62.9	62.9	82	57.3	0	0	---	0.00	29.960 
22:25	62.7	62.7	62.7	83	57.5	0	0	---	0.00	29.960 
22:30	62.6	62.6	62.6	83	57.4	0	0	---	0.00	29.968 
22:35	62.7	62.7	62.7	84	57.8	0	1	270	0.00	29.968 
22:40	62.9	62.9	62.9	84	58.0	0	1	270	0.00	29.968 
22:45	63.2	63.2	63.2	84	58.3	0	1	270	0.00	29.973 
22:50	63.2	63.2	63.2	84	58.3	0	0	---	0.00	29.973 
22:55	63.2	63.2	63.2	83	57.9	0	0	---	0.00	29.973 
23:00	63.4	63.4	63.4	83	58.1	0	0	---	0.00	29.976 
23:05	63.4	63.4	63.4	82	57.8	0	0	---	0.00	29.976 
23:10	63.4	63.4	63.4	82	57.8	0	0	---	0.00	29.976 
23:15	63.4	63.4	63.4	82	57.8	0	0	---	0.00	29.974 
23:20	63.4	63.4	63.4	82	57.8	0	0	---	0.00	29.974 
23:25	63.4	63.4	63.4	82	57.8	0	0	---	0.00	29.974 
23:30	63.4	63.4	63.4	81	57.5	0	0	---	0.00	29.976 
23:35	63.4	63.4	63.4	81	57.5	0	0	---	0.00	29.976 
23:40	63.4	63.4	63.4	81	57.5	0	0	---	0.00	29.976 
23:45	63.4	63.4	63.4	81	57.5	0	0	---	0.00	29.975 
23:50	63.5	63.5	63.5	81	57.6	0	0	---	0.00	29.975 
23:55	63.4	63.4	63.4	81	57.5	0	1	270	0.00	29.975 

CoCoRaHS
IN-AL-39
A2 Web Hosting
Creative Commons License
GoDaddy
search engine by freefind advanced

loaded 2018-11-17 00:28:11 • last modified 2010-11-18 10:43:29
Privacy PolicyDisclaimer
• wx.awcolley.com is powered by PmWiki v.2002016 •
• all content (unless otherwise noted) © 2018 A W Colley